createdAt,value
2019-03-05T00:00:25.270Z,98742.60
2019-03-05T00:02:55.674Z,98748.05
2019-03-05T00:05:27.048Z,98740.52
2019-03-05T00:07:57.558Z,98739.64
2019-03-05T00:10:28.795Z,98731.73
2019-03-05T00:12:59.377Z,98738.87
2019-03-05T00:15:32.050Z,98733.78
2019-03-05T00:18:02.442Z,98721.50
2019-03-05T00:20:32.911Z,98727.02
2019-03-05T00:23:03.329Z,98719.13
2019-03-05T00:25:36.233Z,98717.14
2019-03-05T00:28:24.894Z,98718.86
2019-03-05T00:31:08.968Z,98718.56
2019-03-05T00:33:57.650Z,98721.73
2019-03-05T00:36:56.730Z,98721.89
2019-03-05T00:39:46.619Z,98713.69
2019-03-05T00:42:52.998Z,98716.17
2019-03-05T00:45:41.484Z,98723.81
2019-03-05T00:48:42.102Z,98719.41
2019-03-05T00:51:35.175Z,98724.23
2019-03-05T00:54:24.806Z,98733.45
2019-03-05T00:57:02.995Z,98723.61
2019-03-05T00:59:48.572Z,98732.38
2019-03-05T01:02:22.133Z,98725.49
2019-03-05T01:05:22.411Z,98734.89
2019-03-05T01:07:52.949Z,98731.16
2019-03-05T01:10:27.222Z,98734.11
2019-03-05T01:12:57.745Z,98736.84
2019-03-05T01:15:28.310Z,98737.95
2019-03-05T01:18:00.314Z,98728.27
2019-03-05T01:20:30.758Z,98731.05
2019-03-05T01:23:01.142Z,98728.63
2019-03-05T01:25:33.852Z,98730.81
2019-03-05T01:28:04.294Z,98723.98
2019-03-05T01:30:57.042Z,98723.69
2019-03-05T01:33:29.011Z,98727.48
2019-03-05T01:36:16.834Z,98720.21
2019-03-05T01:38:51.782Z,98716.77
2019-03-05T01:41:22.243Z,98719.13
2019-03-05T01:43:52.675Z,98713.32
2019-03-05T01:46:23.204Z,98706.48
2019-03-05T01:48:53.587Z,98707.95
2019-03-05T01:51:24.127Z,98706.78
2019-03-05T01:53:54.568Z,98704.66
2019-03-05T01:56:25.026Z,98696.03
2019-03-05T01:58:55.448Z,98688.51
2019-03-05T02:01:25.862Z,98689.66
2019-03-05T02:03:56.326Z,98700.20
2019-03-05T02:06:39.176Z,98692.62
2019-03-05T02:09:09.828Z,98688.84
2019-03-05T02:11:40.298Z,98689.05
2019-03-05T02:14:10.803Z,98690.36
2019-03-05T02:16:41.237Z,98679.45
2019-03-05T02:19:34.569Z,98683.95
2019-03-05T02:22:07.441Z,98679.20
2019-03-05T02:25:07.809Z,98673.09
2019-03-05T02:27:56.323Z,98675.20
2019-03-05T02:30:41.837Z,98672.25
2019-03-05T02:33:15.409Z,98680.02
2019-03-05T02:35:48.985Z,98673.63
2019-03-05T02:38:49.571Z,98675.55
2019-03-05T02:41:37.840Z,98670.62
2019-03-05T02:44:45.809Z,98666.02
2019-03-05T02:47:19.453Z,98654.31
2019-03-05T02:49:55.689Z,98652.95
2019-03-05T02:52:34.785Z,98640.93
2019-03-05T02:55:26.406Z,98648.53
2019-03-05T02:57:55.800Z,98642.78
2019-03-05T03:00:30.751Z,98643.41
2019-03-05T03:03:02.761Z,98638.66
2019-03-05T03:05:35.589Z,98637.98
2019-03-05T03:08:06.083Z,98626.48
2019-03-05T03:10:36.659Z,98630.06
2019-03-05T03:13:07.093Z,98625.78
2019-03-05T03:15:37.585Z,98620.98
2019-03-05T03:18:08.106Z,98620.13
2019-03-05T03:20:38.560Z,98614.55
2019-03-05T03:23:09.045Z,98617.19
2019-03-05T03:25:39.508Z,98616.50
2019-03-05T03:28:10.088Z,98612.38
2019-03-05T03:30:40.586Z,98612.69
2019-03-05T03:33:10.987Z,98611.54
2019-03-05T03:35:41.411Z,98608.91
2019-03-05T03:38:12.042Z,98613.84
2019-03-05T03:40:44.589Z,98601.46
2019-03-05T03:43:14.834Z,98592.91
2019-03-05T03:45:45.334Z,98588.44
2019-03-05T03:48:17.708Z,98583.00
2019-03-05T03:50:48.333Z,98590.53
2019-03-05T03:53:18.782Z,98592.55
2019-03-05T03:55:49.233Z,98596.79
2019-03-05T03:58:19.813Z,98601.59
2019-03-05T04:00:52.237Z,98607.33
2019-03-05T04:03:22.741Z,98604.54
2019-03-05T04:08:53.111Z,98598.27
2019-03-05T04:11:24.454Z,98586.08
2019-03-05T04:13:54.917Z,98594.75
2019-03-05T04:16:28.482Z,98591.75
2019-03-05T04:19:00.614Z,98592.54
2019-03-05T04:21:31.026Z,98584.70
2019-03-05T04:24:03.068Z,98581.52
2019-03-05T04:26:33.487Z,98578.19
2019-03-05T04:29:03.981Z,98574.61
2019-03-05T04:31:34.532Z,98564.38
2019-03-05T04:34:06.947Z,98571.62
2019-03-05T04:36:41.707Z,98568.50
2019-03-05T04:39:12.364Z,98570.83
2019-03-05T04:41:42.783Z,98577.02
2019-03-05T04:44:14.755Z,98584.94
2019-03-05T04:46:46.809Z,98594.70
2019-03-05T04:52:15.824Z,98581.98
2019-03-05T04:54:46.279Z,98583.43
2019-03-05T04:57:24.531Z,98572.77
2019-03-05T04:59:55.351Z,98561.68
2019-03-05T05:02:25.885Z,98548.34
2019-03-05T05:04:56.358Z,98558.52
2019-03-05T05:07:26.810Z,98556.23
2019-03-05T05:09:57.266Z,98569.66
2019-03-05T05:12:27.744Z,98568.48
2019-03-05T05:14:58.167Z,98572.97
2019-03-05T05:17:28.667Z,98565.20
2019-03-05T05:19:59.072Z,98575.45
2019-03-05T05:22:30.854Z,98553.70
2019-03-05T05:25:01.309Z,98538.45
2019-03-05T05:27:31.829Z,98545.94
2019-03-05T05:30:02.704Z,98528.58
2019-03-05T05:32:35.542Z,98503.33
2019-03-05T05:35:06.464Z,98508.44
2019-03-05T05:37:40.584Z,98509.06
2019-03-05T05:40:29.417Z,98499.91
2019-03-05T05:43:00.611Z,98499.09
2019-03-05T05:45:50.783Z,98494.77
2019-03-05T05:48:23.033Z,98494.92
2019-03-05T05:50:56.511Z,98500.35
2019-03-05T05:56:19.497Z,98496.52
2019-03-05T06:01:41.870Z,98493.66
2019-03-05T06:04:28.559Z,98503.40
2019-03-05T06:06:59.093Z,98505.20
2019-03-05T06:09:29.593Z,98509.25
2019-03-05T06:12:00.162Z,98506.97
2019-03-05T06:14:30.696Z,98506.78
2019-03-05T06:17:01.243Z,98507.48
2019-03-05T06:20:12.186Z,98517.36
2019-03-05T06:22:42.654Z,98525.66
2019-03-05T06:25:14.959Z,98526.31
2019-03-05T06:27:45.373Z,98513.75
2019-03-05T06:30:21.125Z,98513.94
2019-03-05T06:32:53.543Z,98515.59
2019-03-05T06:35:27.507Z,98513.13
2019-03-05T06:37:58.008Z,98510.95
2019-03-05T06:40:31.732Z,98490.48
2019-03-05T06:43:02.171Z,98500.55
2019-03-05T06:45:33.429Z,98509.00
2019-03-05T06:48:08.180Z,98493.80
2019-03-05T06:50:40.404Z,98482.89
2019-03-05T06:53:16.236Z,98469.69
2019-03-05T06:55:51.339Z,98461.39
2019-03-05T06:58:21.907Z,98459.89
2019-03-05T07:00:52.396Z,98448.00
2019-03-05T07:03:24.520Z,98455.94
2019-03-05T07:06:30.989Z,98452.59
2019-03-05T07:09:05.378Z,98447.19
2019-03-05T07:12:02.553Z,98458.38
2019-03-05T07:15:16.067Z,98437.41
2019-03-05T07:17:58.430Z,98439.47
2019-03-05T07:20:51.508Z,98429.99
2019-03-05T07:23:39.692Z,98438.58
2019-03-05T07:26:15.637Z,98438.74
2019-03-05T07:28:50.521Z,98443.38
2019-03-05T07:31:28.081Z,98432.56
2019-03-05T07:33:58.745Z,98424.84
2019-03-05T07:36:29.317Z,98431.80
2019-03-05T07:38:59.870Z,98423.05
2019-03-05T07:41:30.398Z,98434.00
2019-03-05T07:44:03.065Z,98431.95
2019-03-05T07:46:33.505Z,98428.11
2019-03-05T07:49:04.047Z,98426.05
2019-03-05T07:51:34.583Z,98411.02
2019-03-05T07:54:05.084Z,98403.45
2019-03-05T07:56:35.632Z,98406.47
2019-03-05T07:59:08.344Z,98401.51
2019-03-05T08:01:38.461Z,98404.72
2019-03-05T08:04:09.122Z,98404.96
2019-03-05T08:06:39.654Z,98412.16
2019-03-05T08:09:37.312Z,98404.01
2019-03-05T08:12:27.129Z,98402.92
2019-03-05T08:15:19.185Z,98398.88
2019-03-05T08:17:56.795Z,98401.02
2019-03-05T08:20:41.441Z,98396.63
2019-03-05T08:23:25.250Z,98399.84
2019-03-05T08:25:59.310Z,98398.17
2019-03-05T08:31:21.569Z,98390.61
2019-03-05T08:37:01.882Z,98378.41
2019-03-05T08:39:33.582Z,98363.85
2019-03-05T08:42:04.163Z,98360.94
2019-03-05T08:44:36.421Z,98356.86
2019-03-05T08:47:10.574Z,98349.27
2019-03-05T08:49:42.815Z,98349.35
2019-03-05T08:52:18.016Z,98348.25
2019-03-05T08:54:48.461Z,98356.48
2019-03-05T08:57:22.075Z,98369.00
2019-03-05T08:59:52.608Z,98364.66
2019-03-05T09:02:24.655Z,98367.25
2019-03-05T09:04:55.073Z,98361.20
2019-03-05T09:07:28.337Z,98352.21
2019-03-05T09:09:58.771Z,98356.61
2019-03-05T09:12:29.200Z,98350.28
2019-03-05T09:14:59.601Z,98346.64
2019-03-05T09:17:30.064Z,98340.92
2019-03-05T09:20:00.622Z,98333.67
2019-03-05T09:22:32.665Z,98339.05
2019-03-05T09:25:08.115Z,98334.30
2019-03-05T09:27:38.574Z,98325.61
2019-03-05T09:33:20.206Z,98315.36
2019-03-05T09:35:53.089Z,98321.62
2019-03-05T09:38:28.239Z,98303.16
2019-03-05T09:41:00.535Z,98306.48
2019-03-05T09:43:32.586Z,98301.89
2019-03-05T09:46:03.039Z,98295.16
2019-03-05T09:48:33.541Z,98293.30
2019-03-05T09:51:04.077Z,98282.96
2019-03-05T09:53:34.641Z,98279.79
2019-03-05T09:56:05.961Z,98276.16
2019-03-05T09:58:42.596Z,98261.72
2019-03-05T10:01:14.740Z,98266.24
2019-03-05T10:03:45.251Z,98261.92
2019-03-05T10:06:15.553Z,98253.55
2019-03-05T10:08:47.573Z,98258.88
2019-03-05T10:11:21.612Z,98251.50
2019-03-05T10:13:52.052Z,98245.22
2019-03-05T10:19:14.971Z,98229.10
2019-03-05T10:21:46.533Z,98223.44
2019-03-05T10:24:21.814Z,98223.65
2019-03-05T10:26:52.375Z,98207.52
2019-03-05T10:29:22.878Z,98200.86
2019-03-05T10:31:53.343Z,98202.23
2019-03-05T10:34:24.759Z,98189.43
2019-03-05T10:36:56.302Z,98179.56
2019-03-05T10:39:30.938Z,98164.09
2019-03-05T10:42:00.438Z,98170.28
2019-03-05T10:44:30.843Z,98155.66
2019-03-05T10:47:02.271Z,98150.16
2019-03-05T10:49:35.851Z,98150.41
2019-03-05T10:52:07.985Z,98149.28
2019-03-05T10:54:38.525Z,98130.59
2019-03-05T10:57:08.989Z,98131.06
2019-03-05T10:59:39.549Z,98118.73
2019-03-05T11:02:15.197Z,98109.30
2019-03-05T11:04:46.166Z,98105.73
2019-03-05T11:07:16.616Z,98100.33
2019-03-05T11:10:10.522Z,98097.27
2019-03-05T11:12:39.180Z,98083.04
2019-03-05T11:15:27.639Z,98081.73
2019-03-05T11:17:58.137Z,98079.69
2019-03-05T11:20:29.987Z,98090.44
2019-03-05T11:23:00.526Z,98086.75
2019-03-05T11:25:32.891Z,98074.64
2019-03-05T11:28:03.804Z,98061.30
2019-03-05T11:30:39.451Z,98077.74
2019-03-05T11:33:17.028Z,98087.44
2019-03-05T11:35:51.063Z,98092.11
2019-03-05T11:38:30.293Z,98108.59
2019-03-05T11:41:01.547Z,98100.43
2019-03-05T11:43:32.742Z,98096.94
2019-03-05T11:46:04.738Z,98086.87
2019-03-05T11:48:35.173Z,98095.13
2019-03-05T11:51:08.359Z,98098.41
2019-03-05T11:53:38.891Z,98084.88
2019-03-05T11:56:09.413Z,98106.59
2019-03-05T11:58:40.002Z,98101.45
2019-03-05T12:01:12.995Z,98093.82
2019-03-05T12:03:53.934Z,98099.62
2019-03-05T12:06:26.484Z,98082.92
2019-03-05T12:08:57.033Z,98081.09
2019-03-05T12:11:27.527Z,98089.22
2019-03-05T12:13:58.018Z,98065.53
2019-03-05T12:16:51.440Z,98051.78
2019-03-05T12:19:17.057Z,98039.98
2019-03-05T12:21:47.561Z,98036.36
2019-03-05T12:24:19.897Z,98052.02
2019-03-05T12:26:50.463Z,98040.81
2019-03-05T12:29:21.760Z,98057.73
2019-03-05T12:31:52.261Z,98072.27
2019-03-05T12:34:22.703Z,98080.85
2019-03-05T12:36:57.183Z,98079.01
2019-03-05T12:39:27.703Z,98079.84
2019-03-05T12:41:58.446Z,98089.74
2019-03-05T12:44:36.204Z,98075.05
2019-03-05T12:47:08.109Z,98073.32
2019-03-05T12:49:40.778Z,98081.22
2019-03-05T12:52:11.234Z,98082.64
2019-03-05T12:54:43.408Z,98091.47
2019-03-05T12:57:13.864Z,98087.71
2019-03-05T12:59:44.185Z,98089.02
2019-03-05T13:02:14.657Z,98086.38
2019-03-05T13:04:45.794Z,98088.15
2019-03-05T13:07:17.686Z,98076.11
2019-03-05T13:09:48.417Z,98078.63
2019-03-05T13:12:21.550Z,98076.56
2019-03-05T13:14:52.072Z,98074.23
2019-03-05T13:17:22.592Z,98077.80
2019-03-05T13:19:54.634Z,98076.58
2019-03-05T13:22:28.833Z,98083.34
2019-03-05T13:24:57.438Z,98068.11
2019-03-05T13:27:29.501Z,98069.27
2019-03-05T13:29:59.919Z,98061.94
2019-03-05T13:32:34.221Z,98077.45
2019-03-05T13:35:08.570Z,98080.16
2019-03-05T13:37:41.270Z,98083.05
2019-03-05T13:40:30.107Z,98071.82
2019-03-05T13:43:01.039Z,98069.27
2019-03-05T13:45:31.700Z,98077.30
2019-03-05T13:48:23.578Z,98072.72
2019-03-05T13:51:04.189Z,98071.75
2019-03-05T13:54:00.921Z,98067.39
2019-03-05T13:56:37.867Z,98064.64
2019-03-05T13:59:23.841Z,98066.56
2019-03-05T14:01:57.426Z,98067.47
2019-03-05T14:04:31.279Z,98076.08
2019-03-05T14:07:07.767Z,98079.05
2019-03-05T14:09:43.104Z,98073.92
2019-03-05T14:12:17.221Z,98069.44
2019-03-05T14:14:57.679Z,98065.25
2019-03-05T14:17:29.163Z,98069.56
2019-03-05T14:20:03.586Z,98063.48
2019-03-05T14:22:47.316Z,98062.18
2019-03-05T14:25:20.978Z,98074.31
2019-03-05T14:27:54.587Z,98070.10
2019-03-05T14:30:27.898Z,98068.55
2019-03-05T14:33:01.252Z,98075.99
2019-03-05T14:35:31.800Z,98078.58
2019-03-05T14:38:07.052Z,98089.48
2019-03-05T14:40:41.903Z,98090.08
2019-03-05T14:43:21.642Z,98095.63
2019-03-05T14:45:52.288Z,98104.89
2019-03-05T14:48:24.725Z,98092.41
2019-03-05T14:51:01.368Z,98094.44
2019-03-05T14:53:44.555Z,98086.38
2019-03-05T14:56:21.150Z,98090.87
2019-03-05T14:59:02.791Z,98090.55
2019-03-05T15:01:33.643Z,98086.88
2019-03-05T15:04:06.653Z,98083.08
2019-03-05T15:06:40.977Z,98096.41
2019-03-05T15:09:16.881Z,98091.73
2019-03-05T15:11:47.208Z,98096.02
2019-03-05T15:14:20.558Z,98100.66
2019-03-05T15:17:02.638Z,98097.28
2019-03-05T15:19:51.083Z,98098.69
2019-03-05T15:22:25.195Z,98100.98
2019-03-05T15:25:00.724Z,98096.28
2019-03-05T15:27:31.388Z,98108.98
2019-03-05T15:30:03.430Z,98113.69
2019-03-05T15:32:35.212Z,98123.02
2019-03-05T15:35:08.325Z,98129.70
2019-03-05T15:37:41.593Z,98143.02
2019-03-05T15:40:17.540Z,98143.77
2019-03-05T15:42:53.765Z,98154.00
2019-03-05T15:45:29.639Z,98162.00
2019-03-05T15:48:01.935Z,98169.88
2019-03-05T15:57:26.017Z,98189.23
2019-03-05T16:00:03.334Z,98197.23
2019-03-05T16:02:50.730Z,98204.52
2019-03-05T16:05:32.075Z,98216.71
2019-03-05T16:08:02.776Z,98215.67
2019-03-05T16:11:35.154Z,98223.28
2019-03-05T16:16:33.071Z,98228.81
2019-03-05T16:25:50.218Z,98262.52
2019-03-05T16:28:39.211Z,98274.08
2019-03-05T16:31:38.241Z,98283.50
2019-03-05T16:35:11.928Z,98296.93
2019-03-05T16:37:57.794Z,98317.98
2019-03-05T16:40:46.227Z,98321.42
2019-03-05T16:43:29.412Z,98342.68
2019-03-05T16:46:25.836Z,98332.78
2019-03-05T16:49:03.388Z,98356.00
2019-03-05T16:51:38.323Z,98365.53
2019-03-05T16:54:30.100Z,98373.53
2019-03-05T16:57:04.496Z,98384.65
2019-03-05T16:59:56.394Z,98381.30
2019-03-05T17:02:38.293Z,98390.25
2019-03-05T17:05:37.342Z,98399.60
2019-03-05T17:08:10.856Z,98403.56
2019-03-05T17:10:44.738Z,98407.12
2019-03-05T17:13:19.590Z,98414.44
2019-03-05T17:15:50.215Z,98416.91
2019-03-05T17:18:26.313Z,98416.25
2019-03-05T17:21:03.695Z,98423.24
2019-03-05T17:27:35.993Z,98420.80
2019-03-05T17:30:11.835Z,98427.31
2019-03-05T17:32:48.389Z,98435.89
2019-03-05T17:35:25.974Z,98442.44
2019-03-05T17:38:02.635Z,98441.42
2019-03-05T17:40:34.917Z,98448.36
2019-03-05T17:43:07.519Z,98449.23
2019-03-05T17:45:38.434Z,98457.56
2019-03-05T17:51:00.189Z,98471.04
2019-03-05T17:53:30.970Z,98464.42
2019-03-05T17:59:17.775Z,98470.97
2019-03-05T18:01:52.647Z,98480.77
2019-03-05T18:04:29.234Z,98472.55
2019-03-05T18:07:07.645Z,98480.45
2019-03-05T18:09:54.992Z,98480.80
2019-03-05T18:16:30.998Z,98494.84
2019-03-05T18:19:00.721Z,98500.37
2019-03-05T18:21:49.683Z,98504.78
2019-03-05T18:24:21.720Z,98510.79
2019-03-05T18:29:41.750Z,98517.66
2019-03-05T18:32:13.707Z,98522.13
2019-03-05T18:34:50.118Z,98527.70
2019-03-05T18:37:28.392Z,98527.09
2019-03-05T18:40:23.847Z,98530.96
2019-03-05T18:42:59.036Z,98530.80
2019-03-05T18:45:34.684Z,98535.45
2019-03-05T18:48:10.819Z,98533.98
2019-03-05T18:51:21.861Z,98535.17
2019-03-05T18:54:10.819Z,98539.80
2019-03-05T18:56:45.882Z,98550.56
2019-03-05T18:59:19.560Z,98551.06
2019-03-05T19:01:57.907Z,98558.53
2019-03-05T19:04:31.743Z,98566.95
2019-03-05T19:07:04.228Z,98575.04
2019-03-05T19:09:38.990Z,98571.06
2019-03-05T19:12:33.271Z,98579.83
2019-03-05T19:15:17.418Z,98576.70
2019-03-05T19:17:48.212Z,98583.80
2019-03-05T19:20:27.232Z,98583.94
2019-03-05T19:26:16.900Z,98588.20
2019-03-05T19:28:50.305Z,98586.74
2019-03-05T19:31:30.216Z,98588.73
2019-03-05T19:34:04.622Z,98592.55
2019-03-05T19:36:56.164Z,98594.69
2019-03-05T19:43:06.697Z,98607.39
2019-03-05T19:59:30.062Z,98637.02
2019-03-05T20:02:20.712Z,98637.67
2019-03-05T20:04:53.616Z,98641.14
2019-03-05T20:07:24.063Z,98642.30
2019-03-05T20:09:56.317Z,98648.25
2019-03-05T20:12:28.352Z,98646.94
2019-03-05T20:15:08.249Z,98651.53
2019-03-05T20:25:02.945Z,98656.66
2019-03-05T20:27:34.294Z,98654.03
2019-03-05T20:30:24.230Z,98658.81
2019-03-05T20:33:22.938Z,98654.69
2019-03-05T20:37:40.857Z,98653.53
2019-03-05T20:38:46.043Z,98655.84
2019-03-05T20:41:18.214Z,98661.78
2019-03-05T20:43:49.016Z,98661.78
2019-03-05T20:46:23.951Z,98668.21
2019-03-05T20:48:56.253Z,98675.63
2019-03-05T20:51:36.615Z,98676.28
2019-03-05T20:54:14.722Z,98678.93
2019-03-05T21:20:44.942Z,98722.19
2019-03-05T21:23:15.676Z,98724.08
2019-03-05T21:25:47.594Z,98727.03
2019-03-05T21:28:18.201Z,98728.18
2019-03-05T21:30:52.840Z,98736.56
2019-03-05T21:33:25.641Z,98725.70
2019-03-05T21:36:01.129Z,98718.96
2019-03-05T21:38:39.597Z,98732.74
2019-03-05T21:41:10.706Z,98729.73
2019-03-05T21:43:43.206Z,98736.95
2019-03-05T21:46:16.648Z,98740.83
2019-03-05T21:48:47.518Z,98744.39
2019-03-05T21:51:47.724Z,98741.66
2019-03-05T21:54:11.376Z,98753.00
2019-03-05T21:56:43.029Z,98748.57
2019-03-05T21:59:13.525Z,98755.73
2019-03-05T22:01:44.603Z,98754.79
2019-03-05T22:04:21.643Z,98750.77
2019-03-05T22:07:10.714Z,98755.23
2019-03-05T22:09:53.598Z,98762.38
2019-03-05T22:12:24.048Z,98764.99
2019-03-05T22:14:54.466Z,98764.28
2019-03-05T22:17:25.284Z,98765.98
2019-03-05T22:19:58.111Z,98766.55
2019-03-05T22:22:30.328Z,98774.44
2019-03-05T22:25:07.583Z,98773.58
2019-03-05T22:27:42.122Z,98777.08
2019-03-05T22:30:22.671Z,98785.41
2019-03-05T22:32:53.241Z,98786.73
2019-03-05T22:35:25.879Z,98793.80
2019-03-05T22:38:00.915Z,98788.65
2019-03-05T22:40:31.450Z,98790.47
2019-03-05T22:43:01.994Z,98799.78
2019-03-05T22:45:34.309Z,98791.58
2019-03-05T22:48:04.883Z,98795.23
2019-03-05T22:50:37.163Z,98806.80
2019-03-05T22:55:56.636Z,98807.13
2019-03-05T22:58:27.069Z,98806.26
2019-03-05T23:01:03.702Z,98804.31
2019-03-05T23:03:36.994Z,98818.51
2019-03-05T23:06:13.864Z,98816.50
2019-03-05T23:08:44.281Z,98823.69
2019-03-05T23:11:14.690Z,98834.41
2019-03-05T23:13:45.433Z,98834.05
2019-03-05T23:16:15.939Z,98834.79
2019-03-05T23:18:46.637Z,98837.03
2019-03-05T23:21:17.153Z,98830.63
2019-03-05T23:23:47.788Z,98839.08
2019-03-05T23:26:18.227Z,98836.38
2019-03-05T23:28:48.660Z,98842.01
2019-03-05T23:31:19.159Z,98849.84
2019-03-05T23:33:49.632Z,98846.25
2019-03-05T23:36:20.390Z,98858.00
2019-03-05T23:38:50.986Z,98855.22
2019-03-05T23:41:21.461Z,98847.12
2019-03-05T23:43:51.946Z,98848.92
2019-03-05T23:46:22.366Z,98840.00
2019-03-05T23:48:52.906Z,98831.91
2019-03-05T23:51:23.625Z,98829.71
2019-03-05T23:53:55.070Z,98833.22
2019-03-05T23:56:25.613Z,98826.52
2019-03-05T23:58:56.251Z,98825.42
